Главная страница
METAR-TAF:

METAR-TAF

Аэропорты :

Лаппеэнранта, Финляндия

широта: 61-02-45N, долгота: 028-08-55E, высота над уровнем моря: 106 м

Текущие метеонаблюдения

Эта сводка был подготовлена 30 минут назад, в 10:50 UTC
Ветер 9 Узел от северно-северо-западный, изменяющийся между западный и северный
Температура 16°C
Влажность 48%
Давление 1011 hPa
Видимость 10 км и более
Рассеянная облачность на высоте 4600 фута

METAR: EFLP 261050Z AUTO 33009KT 280V010 9999 BKN046 16/05 Q1011

Время: 14:20 (11:20 UTC)


TAF: отсутствует

Метеонаблюдения и прогнозы для более 4000 аэропортов (сводки METAR и TAF).

Имеющиеся станции представлены на карте желтыми и красными точками.

Чтобы увидеть название станции, наведите на нее мышь.

Затем щелкните, чтобы увидеть метеонаблюдения и метеопрогнозы.

Управление картой: чтобы увеличить масштаб, щелкните зеленые кнопки с черным крестиком; чтобы уменьшить масштаб, щелкните зеленую кнопку с тире; для просмотра соседних карт щелкайте зеленые стрелки.


METAR-TAF: